Airfield :
LOGIN :

Register | Disclaimer

   EN    FR    IT 

 










Legend :    VFR   Marginal VFR   IFR   Intensive IFR   Very Intensive IFR
Visi :
Ceiling :
>= 8 km
>= 3000ft
5 to 8 km
1000 to 3000 ft
1500m to 5 km
500 to 1000 ft
800 to 1500m
200 to 500 ft
< 800m
< 200 ft
Symbols :   Thunderstorms  Fog  Heavy snow  Heavy precipitations  Wind > 20 kt
SIGMETs :     Misc.  Thunderstorms  Icing  Turbulence  Mountain Waves  Volcanic Ashes







- Airport Elevation : 29 ft
- IATA code : SVG


ENZV - Sola

CURRENT METAR :
  • 191720Z 15004KT 9999 BKN018 04/02 Q1035 NOSIG

EXPIRED METARs :
  • 191650Z VRB03KT 9999 BKN018 04/02 Q1035
  • 191620Z VRB02KT 9999 BKN019 04/02 Q1035 NOSIG
  • 191550Z 15003KT 9999 BKN019 04/02 Q1035 NOSIG
  • 191520Z 13003KT 9999 BKN018 04/02 Q1035 NOSIG
  • 191450Z 14004KT 9999 BKN017 05/03 Q1035 NOSIG

TAF TAF ENZV
Valid from the 19 at 12:00 until the 20 at 12:00 UTC


1912/2012 14005KT 9999 SCT008
PROB40
TEMPO 1915/1921 1500 BCFG BKN003
No reported NOTAMs for that airfield.
1 SIGMET reported for the Norway FIR (ENOR) :
 
Severe mountain waves
ENBD SIGMET D03 VALID 191500/191900 ENVN
ENOR NORWAY FIR SEV MTW FCST WI N6950 E01750 - N7120 E02730 - N7040 E03050 - N6800 E01710 - N6950 E01750 SFC/FL450 STNR INTSF=



MET'MAP, your aeronautical weather chart ! - Copyright ORBIFLY December 2007 - Disclaimer

ORBIFLY MET'MAP TEAM :

Programming & Development : Alexandra Zaïnal
Concept & Development : Baudouin d'Aumeries
Co-Development & Prog : Marc-Olivier Méhu
Technical & hardware support : Manuel Goepfert

Contact : metmap@orbifly.com




SOURCES & CREDITS :

   NOAA